createdAt,value
2019-04-29T00:00:08.361Z,3.90
2019-04-29T00:02:37.504Z,3.70
2019-04-29T00:05:07.485Z,4.00
2019-04-29T00:07:36.751Z,4.10
2019-04-29T00:10:07.154Z,4.13
2019-04-29T00:12:36.379Z,4.42
2019-04-29T00:15:23.707Z,4.03
2019-04-29T00:17:56.501Z,3.47
2019-04-29T00:20:31.682Z,3.63
2019-04-29T00:23:00.709Z,3.70
2019-04-29T00:25:29.545Z,3.70
2019-04-29T00:27:58.612Z,3.40
2019-04-29T00:30:27.321Z,3.60
2019-04-29T00:32:56.095Z,3.83
2019-04-29T00:35:24.863Z,3.62
2019-04-29T00:38:11.856Z,4.22
2019-04-29T00:40:55.314Z,3.62
2019-04-29T00:43:46.546Z,4.37
2019-04-29T00:46:15.616Z,3.63
2019-04-29T00:48:44.322Z,4.40
2019-04-29T00:51:13.200Z,4.47
2019-04-29T00:53:42.417Z,4.53
2019-04-29T00:56:11.268Z,4.90
2019-04-29T00:58:39.992Z,5.00
2019-04-29T01:01:13.172Z,4.20
2019-04-29T01:03:42.131Z,4.93
2019-04-29T01:06:10.964Z,4.63
2019-04-29T01:08:39.880Z,4.63
2019-04-29T01:11:08.656Z,4.50
2019-04-29T01:13:37.358Z,4.92
2019-04-29T01:16:06.164Z,5.07
2019-04-29T01:18:34.871Z,4.83
2019-04-29T01:21:03.671Z,5.30
2019-04-29T01:23:32.492Z,5.40
2019-04-29T01:26:05.512Z,4.80
2019-04-29T01:28:50.713Z,5.95
2019-04-29T01:31:29.637Z,6.30
2019-04-29T01:34:03.898Z,5.53
2019-04-29T01:36:36.957Z,6.20
2019-04-29T01:39:08.972Z,6.70
2019-04-29T01:41:46.869Z,5.67
2019-04-29T01:44:16.487Z,7.00
2019-04-29T01:46:45.215Z,5.73
2019-04-29T01:49:13.916Z,5.93
2019-04-29T01:51:42.631Z,7.43
2019-04-29T01:54:11.330Z,6.50
2019-04-29T01:56:40.372Z,5.93
2019-04-29T01:59:09.204Z,6.50
2019-04-29T02:01:38.005Z,6.50
2019-04-29T02:04:07.170Z,5.80
2019-04-29T02:06:35.897Z,5.70
2019-04-29T02:09:10.018Z,5.90
2019-04-29T02:11:39.453Z,6.47
2019-04-29T02:14:08.303Z,5.10
2019-04-29T02:16:37.010Z,5.57
2019-04-29T02:19:06.150Z,6.17
2019-04-29T02:21:34.932Z,5.80
2019-04-29T02:24:16.344Z,6.10
2019-04-29T02:26:45.066Z,5.83
2019-04-29T02:29:13.760Z,6.00
2019-04-29T02:31:43.465Z,6.90
2019-04-29T02:34:12.281Z,5.93
2019-04-29T02:36:41.020Z,6.27
2019-04-29T02:39:28.721Z,6.13
2019-04-29T02:42:15.591Z,6.73
2019-04-29T02:44:44.475Z,6.62
2019-04-29T02:47:13.258Z,6.20
2019-04-29T02:49:42.045Z,6.07
2019-04-29T02:52:10.838Z,6.87
2019-04-29T02:54:39.882Z,5.90
2019-04-29T02:57:32.489Z,7.10
2019-04-29T03:00:29.743Z,6.13
2019-04-29T03:03:04.702Z,7.07
2019-04-29T03:05:43.893Z,6.22
2019-04-29T03:08:12.701Z,7.17
2019-04-29T03:10:41.485Z,7.00
2019-04-29T03:13:10.386Z,6.90
2019-04-29T03:15:42.207Z,6.70
2019-04-29T03:18:11.262Z,7.30
2019-04-29T03:20:54.919Z,7.15
2019-04-29T03:23:24.036Z,6.63
2019-04-29T03:25:52.727Z,6.60
2019-04-29T03:28:21.468Z,6.83
2019-04-29T03:30:50.524Z,7.20
2019-04-29T03:33:19.290Z,6.87
2019-04-29T03:35:48.221Z,6.83
2019-04-29T03:38:17.043Z,7.00
2019-04-29T03:40:45.813Z,7.73
2019-04-29T03:43:14.546Z,7.47
2019-04-29T03:45:43.242Z,7.00
2019-04-29T03:48:11.975Z,7.73
2019-04-29T03:50:40.668Z,7.50
2019-04-29T03:53:09.376Z,6.90
2019-04-29T03:55:40.544Z,7.67
2019-04-29T03:58:09.029Z,6.17
2019-04-29T04:00:37.908Z,8.10
2019-04-29T04:03:13.661Z,7.57
2019-04-29T04:05:51.310Z,7.77
2019-04-29T04:08:23.481Z,7.58
2019-04-29T04:10:52.190Z,7.40
2019-04-29T04:13:20.898Z,8.78
2019-04-29T04:15:49.662Z,7.57
2019-04-29T04:18:25.283Z,8.00
2019-04-29T04:20:54.070Z,8.57
2019-04-29T04:23:22.875Z,8.25
2019-04-29T04:25:51.667Z,9.60
2019-04-29T04:28:20.393Z,11.40
2019-04-29T04:30:49.213Z,11.57
2019-04-29T04:33:17.943Z,12.30
2019-04-29T04:35:46.735Z,11.77
2019-04-29T04:38:15.561Z,11.30
2019-04-29T04:40:49.060Z,11.07
2019-04-29T04:43:17.888Z,10.30
2019-04-29T04:45:46.614Z,9.27
2019-04-29T04:48:15.333Z,11.33
2019-04-29T04:50:44.119Z,10.63
2019-04-29T04:53:12.950Z,11.43
2019-04-29T04:55:43.809Z,12.83
2019-04-29T04:58:12.512Z,13.07
2019-04-29T05:00:41.673Z,13.28
2019-04-29T05:03:10.414Z,12.18
2019-04-29T05:05:42.380Z,12.80
2019-04-29T05:08:09.979Z,12.43
2019-04-29T05:10:38.974Z,13.10
2019-04-29T05:13:08.057Z,14.40
2019-04-29T05:15:36.824Z,13.18
2019-04-29T05:18:05.634Z,12.33
2019-04-29T05:20:34.671Z,13.57
2019-04-29T05:23:03.388Z,13.50
2019-04-29T05:25:33.388Z,11.95
2019-04-29T05:28:02.641Z,12.63
2019-04-29T05:30:31.426Z,12.77
2019-04-29T05:33:00.508Z,12.47
2019-04-29T05:35:40.211Z,12.47
2019-04-29T05:38:30.841Z,12.40
2019-04-29T05:40:59.894Z,13.33
2019-04-29T05:43:38.394Z,13.60
2019-04-29T05:46:12.873Z,14.43
2019-04-29T05:48:41.636Z,12.85
2019-04-29T05:51:31.000Z,12.37
2019-04-29T05:54:00.945Z,11.83
2019-04-29T05:56:29.687Z,13.70
2019-04-29T05:58:58.592Z,12.80
2019-04-29T06:01:28.913Z,13.30
2019-04-29T06:03:57.917Z,11.75
2019-04-29T06:06:26.705Z,12.83
2019-04-29T06:08:55.481Z,13.00
2019-04-29T06:11:24.218Z,11.93
2019-04-29T06:13:53.029Z,13.15
2019-04-29T06:16:22.707Z,12.43
2019-04-29T06:18:59.802Z,12.37
2019-04-29T06:21:22.362Z,10.93
2019-04-29T06:23:54.293Z,11.95
2019-04-29T06:26:21.957Z,11.30
2019-04-29T06:28:51.057Z,11.43
2019-04-29T06:31:19.981Z,11.43
2019-04-29T06:33:49.060Z,11.03
2019-04-29T06:36:17.856Z,9.25
2019-04-29T06:38:46.567Z,10.97
2019-04-29T06:41:15.313Z,11.30
2019-04-29T06:43:44.955Z,12.10
2019-04-29T06:46:13.760Z,11.28
2019-04-29T06:48:42.560Z,12.37
2019-04-29T06:51:11.305Z,10.97
2019-04-29T06:53:40.129Z,10.70
2019-04-29T06:56:09.391Z,9.60
2019-04-29T06:58:38.605Z,11.00
2019-04-29T07:01:07.528Z,12.20
2019-04-29T07:03:36.404Z,10.30
2019-04-29T07:06:05.525Z,11.03
2019-04-29T07:08:34.316Z,10.07
2019-04-29T07:11:03.142Z,9.90
2019-04-29T07:13:31.985Z,9.80
2019-04-29T07:16:00.701Z,9.95
2019-04-29T07:18:30.597Z,10.40
2019-04-29T07:20:59.355Z,9.97
2019-04-29T07:23:28.087Z,10.70
2019-04-29T07:25:57.066Z,9.43
2019-04-29T07:28:26.111Z,10.40
2019-04-29T07:31:03.003Z,10.70
2019-04-29T07:33:25.747Z,10.73
2019-04-29T07:35:54.452Z,9.67
2019-04-29T07:38:23.506Z,9.97
2019-04-29T07:40:52.301Z,11.23
2019-04-29T07:43:21.118Z,11.55
2019-04-29T07:46:03.561Z,11.53
2019-04-29T07:48:29.441Z,11.48
2019-04-29T07:50:59.526Z,9.03
2019-04-29T07:53:36.740Z,11.53
2019-04-29T07:56:01.648Z,10.53
2019-04-29T07:58:30.365Z,11.50
2019-04-29T08:00:59.091Z,11.93
2019-04-29T08:03:28.293Z,11.25
2019-04-29T08:05:58.755Z,12.80
2019-04-29T08:08:29.591Z,14.13
2019-04-29T08:10:58.369Z,13.30
2019-04-29T08:13:28.259Z,12.13
2019-04-29T08:15:57.156Z,12.17
2019-04-29T08:18:26.058Z,10.13
2019-04-29T08:20:54.761Z,11.33
2019-04-29T08:23:23.861Z,12.83
2019-04-29T08:25:57.215Z,13.67
2019-04-29T08:28:23.277Z,13.17
2019-04-29T08:30:52.022Z,11.93
2019-04-29T08:33:21.090Z,12.82
2019-04-29T08:35:49.790Z,12.00
2019-04-29T08:38:18.517Z,11.77
2019-04-29T08:40:50.234Z,12.87
2019-04-29T08:43:36.354Z,12.07
2019-04-29T08:46:08.337Z,12.67
2019-04-29T08:48:37.145Z,14.33
2019-04-29T08:51:05.865Z,13.40
2019-04-29T08:53:34.727Z,14.10
2019-04-29T08:56:05.663Z,13.80
2019-04-29T08:58:34.494Z,15.43
2019-04-29T09:01:03.690Z,11.90
2019-04-29T09:03:40.051Z,13.97
2019-04-29T09:06:05.755Z,14.90
2019-04-29T09:08:34.603Z,11.57
2019-04-29T09:11:08.096Z,14.57
2019-04-29T09:13:36.343Z,14.47
2019-04-29T09:16:05.079Z,15.78
2019-04-29T09:18:33.769Z,13.98
2019-04-29T09:21:02.502Z,15.07
2019-04-29T09:23:33.046Z,15.47
2019-04-29T09:26:12.296Z,15.03
2019-04-29T09:28:41.489Z,14.90
2019-04-29T09:31:10.213Z,14.50
2019-04-29T09:33:38.985Z,14.55
2019-04-29T09:36:09.572Z,14.30
2019-04-29T09:38:38.534Z,14.20
2019-04-29T09:41:23.999Z,14.33
2019-04-29T09:44:12.142Z,14.90
2019-04-29T09:46:41.211Z,15.43
2019-04-29T09:49:10.020Z,16.70
2019-04-29T09:51:38.810Z,17.67
2019-04-29T09:54:09.600Z,18.27
2019-04-29T09:56:38.323Z,15.90
2019-04-29T09:59:24.239Z,16.15
2019-04-29T10:02:01.481Z,17.57
2019-04-29T10:04:39.230Z,15.45
2019-04-29T10:07:10.534Z,15.80
2019-04-29T10:09:39.346Z,11.57
2019-04-29T10:12:08.329Z,14.80
2019-04-29T10:14:37.053Z,13.80
2019-04-29T10:17:34.310Z,16.30
2019-04-29T10:20:08.325Z,16.93
2019-04-29T10:22:37.237Z,16.03
2019-04-29T10:25:07.940Z,14.70
2019-04-29T10:27:36.678Z,15.73
2019-04-29T10:30:06.768Z,14.70
2019-04-29T10:32:37.742Z,15.13
2019-04-29T10:35:08.821Z,15.65
2019-04-29T10:37:37.744Z,15.80
2019-04-29T10:40:18.997Z,14.20
2019-04-29T10:42:55.630Z,15.73
2019-04-29T10:45:35.069Z,16.03
2019-04-29T10:48:16.540Z,14.15
2019-04-29T10:50:47.169Z,11.33
2019-04-29T10:53:17.389Z,13.10
2019-04-29T10:55:46.413Z,12.40
2019-04-29T10:58:15.517Z,11.63
2019-04-29T11:01:29.157Z,11.80
2019-04-29T11:04:00.887Z,11.50
2019-04-29T11:06:31.506Z,9.27
2019-04-29T11:09:23.588Z,11.20
2019-04-29T11:11:52.461Z,11.73
2019-04-29T11:14:24.526Z,12.83
2019-04-29T11:16:51.804Z,13.03
2019-04-29T11:19:20.531Z,14.05
2019-04-29T11:21:49.553Z,14.40
2019-04-29T11:24:34.394Z,14.47
2019-04-29T11:27:16.281Z,13.60
2019-04-29T11:29:45.315Z,14.23
2019-04-29T11:32:24.818Z,12.10
2019-04-29T11:35:02.849Z,12.00
2019-04-29T11:37:32.637Z,9.50
2019-04-29T11:40:01.670Z,9.63
2019-04-29T11:42:31.862Z,9.00
2019-04-29T11:45:03.737Z,8.13
2019-04-29T11:47:32.946Z,8.27
2019-04-29T11:50:13.702Z,9.00
2019-04-29T11:52:42.505Z,8.60
2019-04-29T11:55:14.114Z,8.17
2019-04-29T11:57:58.063Z,7.97
2019-04-29T12:00:51.800Z,8.20
2019-04-29T12:03:19.982Z,8.23
2019-04-29T12:05:52.813Z,7.50
2019-04-29T12:08:21.685Z,9.77
2019-04-29T12:11:06.151Z,6.53
2019-04-29T12:13:31.685Z,9.17
2019-04-29T12:16:19.735Z,8.40
2019-04-29T12:18:51.668Z,8.57
2019-04-29T12:21:25.702Z,9.53
2019-04-29T12:23:56.694Z,11.88
2019-04-29T12:26:25.845Z,11.78
2019-04-29T12:28:54.701Z,10.60
2019-04-29T12:31:32.530Z,9.77
2019-04-29T12:34:12.162Z,8.50
2019-04-29T12:36:55.107Z,9.73
2019-04-29T12:39:43.149Z,11.67
2019-04-29T12:42:15.907Z,11.65
2019-04-29T12:44:51.371Z,12.68
2019-04-29T12:47:45.422Z,10.93
2019-04-29T12:50:17.524Z,11.23
2019-04-29T12:52:46.011Z,12.73
2019-04-29T12:55:20.238Z,11.08
2019-04-29T12:57:47.658Z,12.37
2019-04-29T13:00:22.378Z,10.17
2019-04-29T13:03:06.801Z,12.37
2019-04-29T13:05:58.886Z,12.20
2019-04-29T13:08:39.299Z,12.17
2019-04-29T13:11:08.297Z,12.50
2019-04-29T13:13:37.217Z,12.97
2019-04-29T13:16:20.816Z,13.40
2019-04-29T13:19:20.186Z,18.90
2019-04-29T13:21:46.242Z,17.20
2019-04-29T13:24:23.797Z,18.23
2019-04-29T13:26:45.651Z,17.43
2019-04-29T13:29:27.023Z,17.98
2019-04-29T13:31:45.823Z,12.33
2019-04-29T13:34:24.041Z,19.30
2019-04-29T13:37:06.158Z,14.47
2019-04-29T13:39:38.580Z,16.50
2019-04-29T13:41:57.546Z,15.17
2019-04-29T13:44:24.646Z,19.52
2019-04-29T13:47:05.186Z,19.67
2019-04-29T13:49:40.644Z,15.77
2019-04-29T13:52:09.825Z,18.17
2019-04-29T13:54:42.273Z,19.47
2019-04-29T13:57:15.579Z,14.13
2019-04-29T14:00:10.898Z,14.93
2019-04-29T14:02:43.526Z,21.70
2019-04-29T14:05:13.469Z,18.65
2019-04-29T14:07:42.595Z,18.53
2019-04-29T14:10:15.036Z,17.52
2019-04-29T14:12:48.538Z,18.13
2019-04-29T14:15:14.142Z,16.47
2019-04-29T14:17:42.850Z,19.67
2019-04-29T14:20:15.987Z,16.23
2019-04-29T14:22:42.309Z,13.00
2019-04-29T14:25:13.421Z,17.00
2019-04-29T14:27:41.865Z,15.70
2019-04-29T14:30:15.272Z,13.33
2019-04-29T14:32:47.006Z,14.20
2019-04-29T14:35:21.120Z,16.97
2019-04-29T14:37:55.526Z,12.20
2019-04-29T14:40:20.827Z,17.00
2019-04-29T14:42:58.316Z,17.60
2019-04-29T14:45:45.049Z,14.83
2019-04-29T14:48:41.270Z,14.10
2019-04-29T14:50:58.677Z,15.80
2019-04-29T14:53:27.746Z,14.23
2019-04-29T14:55:56.621Z,13.83
2019-04-29T14:58:25.395Z,13.37
2019-04-29T15:01:08.201Z,12.30
2019-04-29T15:03:55.784Z,13.80
2019-04-29T15:06:24.607Z,15.50
2019-04-29T15:08:55.057Z,15.38
2019-04-29T15:11:31.862Z,14.30
2019-04-29T15:14:03.103Z,14.20
2019-04-29T15:16:37.344Z,10.80
2019-04-29T15:19:25.502Z,12.07
2019-04-29T15:21:59.118Z,14.67
2019-04-29T15:24:32.702Z,14.27
2019-04-29T15:26:59.278Z,15.83
2019-04-29T15:29:28.149Z,10.03
2019-04-29T15:31:58.261Z,12.57
2019-04-29T15:34:27.097Z,11.77
2019-04-29T15:36:55.884Z,13.73
2019-04-29T15:39:25.873Z,9.90
2019-04-29T15:41:55.485Z,12.27
2019-04-29T15:44:24.737Z,13.83
2019-04-29T15:46:53.502Z,12.50
2019-04-29T15:49:24.851Z,11.17
2019-04-29T15:51:54.027Z,14.57
2019-04-29T15:54:25.918Z,12.37
2019-04-29T15:56:53.758Z,12.90
2019-04-29T15:59:22.472Z,13.77
2019-04-29T16:01:51.571Z,10.87
2019-04-29T16:04:27.694Z,12.17
2019-04-29T16:07:17.161Z,12.03
2019-04-29T16:10:07.793Z,13.63
2019-04-29T16:12:45.419Z,13.10
2019-04-29T16:15:12.442Z,13.23
2019-04-29T16:17:41.506Z,12.37
2019-04-29T16:20:10.426Z,14.83
2019-04-29T16:22:39.509Z,13.07
2019-04-29T16:25:11.001Z,13.95
2019-04-29T16:27:41.711Z,14.03
2019-04-29T16:30:09.481Z,12.65
2019-04-29T16:32:40.359Z,11.03
2019-04-29T16:35:10.029Z,13.43
2019-04-29T16:37:38.829Z,12.68
2019-04-29T16:40:08.232Z,12.43
2019-04-29T16:42:48.908Z,14.57
2019-04-29T16:45:18.081Z,16.75
2019-04-29T16:47:48.641Z,15.80
2019-04-29T16:50:17.547Z,15.53
2019-04-29T16:52:46.292Z,16.73
2019-04-29T16:55:15.710Z,16.02
2019-04-29T16:57:44.456Z,16.93
2019-04-29T17:00:15.937Z,18.13
2019-04-29T17:02:45.034Z,16.73
2019-04-29T17:05:14.244Z,15.83
2019-04-29T17:07:43.112Z,17.35
2019-04-29T17:10:32.889Z,19.67
2019-04-29T17:13:01.855Z,17.82
2019-04-29T17:15:31.014Z,19.63
2019-04-29T17:18:00.540Z,21.33
2019-04-29T17:20:29.299Z,20.50
2019-04-29T17:22:58.061Z,19.93
2019-04-29T17:25:26.893Z,26.00
2019-04-29T17:28:24.298Z,25.80
2019-04-29T17:31:12.094Z,25.87
2019-04-29T17:33:49.786Z,23.83
2019-04-29T17:36:23.082Z,34.83
2019-04-29T17:38:48.285Z,29.90
2019-04-29T17:41:17.007Z,25.05
2019-04-29T17:43:53.919Z,24.93
2019-04-29T17:46:39.882Z,28.10
2019-04-29T17:49:14.810Z,31.82
2019-04-29T17:51:43.568Z,29.92
2019-04-29T17:54:15.848Z,28.17
2019-04-29T17:57:10.131Z,28.20
2019-04-29T17:59:56.008Z,30.97
2019-04-29T18:02:42.070Z,33.27
2019-04-29T18:05:17.081Z,31.37
2019-04-29T18:07:57.347Z,34.77
2019-04-29T18:10:38.656Z,32.70
2019-04-29T18:13:06.592Z,34.93
2019-04-29T18:15:51.686Z,32.43
2019-04-29T18:18:17.028Z,33.18
2019-04-29T18:21:03.080Z,36.07
2019-04-29T18:23:38.789Z,35.80
2019-04-29T18:26:12.353Z,35.83
2019-04-29T18:28:41.154Z,34.20
2019-04-29T18:31:11.533Z,32.53
2019-04-29T18:33:40.270Z,37.57
2019-04-29T18:36:19.451Z,39.63
2019-04-29T18:38:42.486Z,36.63
2019-04-29T18:41:10.290Z,32.03
2019-04-29T18:43:39.701Z,36.17
2019-04-29T18:46:12.528Z,33.60
2019-04-29T18:48:39.148Z,37.30
2019-04-29T18:51:08.226Z,37.48
2019-04-29T18:53:37.041Z,35.85
2019-04-29T18:56:05.818Z,39.50
2019-04-29T18:58:35.590Z,39.00
2019-04-29T19:01:05.409Z,39.73
2019-04-29T19:03:47.142Z,41.80
2019-04-29T19:06:15.874Z,36.73
2019-04-29T19:08:45.014Z,39.20
2019-04-29T19:11:15.275Z,39.53
2019-04-29T19:13:48.439Z,39.47
2019-04-29T19:16:21.634Z,37.03
2019-04-29T19:18:47.438Z,42.10
2019-04-29T19:21:16.201Z,39.30
2019-04-29T19:23:45.902Z,42.78
2019-04-29T19:26:18.124Z,39.67
2019-04-29T19:28:45.468Z,38.13
2019-04-29T19:31:15.232Z,45.95
2019-04-29T19:33:46.085Z,39.60
2019-04-29T19:36:20.312Z,45.43
2019-04-29T19:38:47.243Z,43.93
2019-04-29T19:41:16.338Z,43.43
2019-04-29T19:43:48.242Z,43.47
2019-04-29T19:46:24.201Z,38.73
2019-04-29T19:48:47.423Z,43.87
2019-04-29T19:51:18.639Z,45.78
2019-04-29T19:53:49.582Z,39.10
2019-04-29T19:56:23.091Z,45.10
2019-04-29T19:58:49.244Z,47.10
2019-04-29T20:01:27.039Z,47.43
2019-04-29T20:04:06.168Z,39.90
2019-04-29T20:06:37.009Z,38.92
2019-04-29T20:09:14.667Z,42.57
2019-04-29T20:11:37.052Z,41.93
2019-04-29T20:14:17.967Z,42.63
2019-04-29T20:17:17.357Z,39.30
2019-04-29T20:20:05.443Z,39.33
2019-04-29T20:22:36.969Z,35.13
2019-04-29T20:25:06.416Z,36.55
2019-04-29T20:27:37.495Z,41.77
2019-04-29T20:30:15.979Z,41.20
2019-04-29T20:32:37.810Z,39.92
2019-04-29T20:35:08.914Z,40.13
2019-04-29T20:37:38.420Z,46.40
2019-04-29T20:40:07.887Z,38.70
2019-04-29T20:42:40.471Z,31.37
2019-04-29T20:45:08.153Z,39.42
2019-04-29T20:47:38.539Z,41.23
2019-04-29T20:50:09.033Z,44.80
2019-04-29T20:53:01.699Z,42.00
2019-04-29T20:55:27.054Z,42.00
2019-04-29T20:57:55.982Z,42.73
2019-04-29T21:00:26.991Z,44.42
2019-04-29T21:02:56.525Z,45.00
2019-04-29T21:05:27.384Z,43.67
2019-04-29T21:08:02.859Z,39.53
2019-04-29T21:10:27.601Z,40.80
2019-04-29T21:13:08.774Z,41.57
2019-04-29T21:15:39.933Z,34.83
2019-04-29T21:18:10.418Z,35.57
2019-04-29T21:20:39.614Z,41.37
2019-04-29T21:23:08.346Z,41.80
2019-04-29T21:25:38.133Z,42.67
2019-04-29T21:28:06.870Z,43.70
2019-04-29T21:30:42.351Z,43.17
2019-04-29T21:33:08.236Z,41.00
2019-04-29T21:35:45.478Z,45.17
2019-04-29T21:38:30.025Z,41.25
2019-04-29T21:41:03.549Z,38.02
2019-04-29T21:43:35.342Z,49.97
2019-04-29T21:46:05.749Z,48.38
2019-04-29T21:48:36.884Z,49.00
2019-04-29T21:51:06.758Z,45.87
2019-04-29T21:53:40.164Z,46.13
2019-04-29T21:56:09.189Z,42.40
2019-04-29T21:58:37.132Z,47.90
2019-04-29T22:01:07.305Z,46.17
2019-04-29T22:03:36.140Z,39.73
2019-04-29T22:06:05.367Z,48.33
2019-04-29T22:08:35.465Z,46.30
2019-04-29T22:11:06.658Z,48.02
2019-04-29T22:13:38.904Z,48.47
2019-04-29T22:16:06.067Z,50.70
2019-04-29T22:18:35.552Z,48.20
2019-04-29T22:21:06.936Z,34.70
2019-04-29T22:23:35.356Z,47.65
2019-04-29T22:26:05.029Z,42.87
2019-04-29T22:28:35.121Z,45.77
2019-04-29T22:31:07.470Z,46.67
2019-04-29T22:33:38.470Z,43.73
2019-04-29T22:36:10.276Z,51.70
2019-04-29T22:38:36.669Z,48.60
2019-04-29T22:41:11.921Z,43.80
2019-04-29T22:43:52.781Z,46.97
2019-04-29T22:46:21.515Z,50.03
2019-04-29T22:48:51.053Z,49.47
2019-04-29T22:51:20.053Z,46.60
2019-04-29T22:53:48.761Z,38.23
2019-04-29T22:56:17.489Z,43.63
2019-04-29T22:58:47.405Z,40.40
2019-04-29T23:01:17.788Z,44.83
2019-04-29T23:03:47.119Z,40.17
2019-04-29T23:06:15.969Z,42.87
2019-04-29T23:08:45.015Z,41.10
2019-04-29T23:11:14.501Z,40.50
2019-04-29T23:13:43.278Z,42.37
2019-04-29T23:16:11.999Z,44.40
2019-04-29T23:18:43.540Z,43.33
2019-04-29T23:21:29.386Z,33.43
2019-04-29T23:24:17.497Z,43.80
2019-04-29T23:26:46.324Z,45.63
2019-04-29T23:29:15.665Z,45.75
2019-04-29T23:31:45.379Z,44.73
2019-04-29T23:34:15.538Z,42.47
2019-04-29T23:36:48.996Z,44.70
2019-04-29T23:39:15.433Z,46.70
2019-04-29T23:41:45.110Z,40.40
2019-04-29T23:44:14.053Z,39.47
2019-04-29T23:46:42.768Z,43.07
2019-04-29T23:49:11.543Z,43.30
2019-04-29T23:51:40.311Z,44.50
2019-04-29T23:54:09.022Z,38.63
2019-04-29T23:56:52.850Z,42.37
2019-04-29T23:59:26.236Z,41.33
